Time;durP1;ratioP1;P1;durP2;ratioP2;P2;SDS_P1;SDS_P2;PMS_P1;PMS_P2;Temp;Humidity;BMP_temperature;BMP_pressure;BME280_temperature;BME280_humidity;BME280_pressure;Samples;Min_cycle;Max_cycle;Signal;HPM_P1;HPM_P2
2024/01/11 00:00:30;;;;;;;29.35;14.98;;;;;;;-5.58;100.00;102908.03;5032916;28;20365;-68
2024/01/11 00:02:55;;;;;;;30.55;14.90;;;;;;;-5.63;100.00;102914.28;5032894;28;20080;-67
2024/01/11 00:05:21;;;;;;;29.55;14.55;;;;;;;-5.71;100.00;102902.47;5032710;28;20501;-67
2024/01/11 00:07:46;;;;;;;29.95;14.52;;;;;;;-5.70;100.00;102909.38;5032733;28;20113;-67
2024/01/11 00:10:12;;;;;;;27.92;14.73;;;;;;;-5.78;100.00;102901.84;5032683;28;20084;-67
2024/01/11 00:12:37;;;;;;;33.28;15.98;;;;;;;-5.70;100.00;102914.59;5032602;28;20029;-68
2024/01/11 00:15:03;;;;;;;35.15;14.52;;;;;;;-5.75;100.00;102913.91;5032510;28;20053;-68
2024/01/11 00:17:28;;;;;;;33.88;16.13;;;;;;;-5.77;100.00;102915.72;5032409;28;20442;-68
2024/01/11 00:19:53;;;;;;;30.52;14.38;;;;;;;-5.77;100.00;102915.72;5032407;28;20029;-68
2024/01/11 00:22:19;;;;;;;30.50;15.93;;;;;;;-5.77;100.00;102918.34;5032385;28;20076;-68
2024/01/11 00:24:44;;;;;;;30.65;15.43;;;;;;;-5.80;100.00;102911.44;5032462;28;20118;-68
2024/01/11 00:27:09;;;;;;;29.33;14.40;;;;;;;-5.87;100.00;102907.38;5031955;28;20021;-68
2024/01/11 00:29:35;;;;;;;26.13;14.52;;;;;;;-5.84;100.00;102919.44;5014629;28;20033;-68
2024/01/11 00:32:01;;;;;;;32.63;16.52;;;;;;;-5.89;100.00;102916.19;5032579;28;20037;-67
2024/01/11 00:34:26;;;;;;;28.80;15.73;;;;;;;-5.90;100.00;102917.09;5032256;28;20079;-67
2024/01/11 00:36:51;;;;;;;31.10;15.30;;;;;;;-5.95;100.00;102910.31;5032100;28;20490;-68
2024/01/11 00:39:17;;;;;;;25.17;14.90;;;;;;;-5.96;100.00;102908.63;5032147;28;20390;-68
2024/01/11 00:41:42;;;;;;;30.65;15.18;;;;;;;-5.96;100.00;102913.81;5032100;28;20056;-68
2024/01/11 00:44:08;;;;;;;31.05;15.68;;;;;;;-5.93;100.00;102918.06;5031924;28;20030;-68
2024/01/11 00:46:34;;;;;;;30.73;15.95;;;;;;;-5.96;100.00;102913.81;5014153;28;20037;-68
2024/01/11 00:48:59;;;;;;;30.80;16.30;;;;;;;-5.96;100.00;102911.22;5032057;28;20025;-68
2024/01/11 00:51:25;;;;;;;28.52;14.70;;;;;;;-6.01;100.00;102905.34;5031858;28;20046;-67
2024/01/11 00:53:50;;;;;;;30.17;15.38;;;;;;;-5.94;100.00;102912.00;5031865;28;20033;-68
2024/01/11 00:56:19;;;;;;;32.65;15.57;;;;;;;-5.99;100.00;102910.50;5031956;28;20025;-68
2024/01/11 00:58:45;;;;;;;33.00;15.10;;;;;;;-5.97;100.00;102914.72;5031826;28;20037;-69
2024/01/11 01:01:10;;;;;;;31.25;14.68;;;;;;;-5.96;100.00;102912.97;5031686;28;20105;-68
2024/01/11 01:03:36;;;;;;;30.52;15.57;;;;;;;-6.01;100.00;102907.94;5031741;28;20195;-67
2024/01/11 01:06:02;;;;;;;31.13;14.57;;;;;;;-5.99;100.00;102918.28;5031736;28;20036;-67
2024/01/11 01:08:27;;;;;;;37.25;16.23;;;;;;;-5.99;100.00;102915.69;5031785;28;20029;-67
2024/01/11 01:10:53;;;;;;;35.50;15.98;;;;;;;-6.04;100.00;102915.03;5031760;28;20126;-67
2024/01/11 01:13:18;;;;;;;32.00;17.17;;;;;;;-6.03;100.00;102919.31;5031752;28;20394;-68
2024/01/11 01:15:44;;;;;;;29.05;15.40;;;;;;;-6.09;100.00;102914.31;5031652;28;20124;-67
2024/01/11 01:18:09;;;;;;;25.67;13.75;;;;;;;-6.02;100.00;102928.81;5031581;28;20025;-68
2024/01/11 01:20:34;;;;;;;30.50;14.68;;;;;;;-6.09;100.00;102922.97;5031565;28;20029;-68
2024/01/11 01:23:00;;;;;;;30.85;15.80;;;;;;;-6.05;100.00;102937.59;5031455;28;20120;-67
2024/01/11 01:25:26;;;;;;;28.60;14.52;;;;;;;-6.03;100.00;102935.78;5031735;28;20053;-68
2024/01/11 01:27:51;;;;;;;36.15;15.35;;;;;;;-6.07;100.00;102934.22;5031511;28;20509;-67
2024/01/11 01:30:17;;;;;;;31.08;14.48;;;;;;;-6.13;100.00;102929.19;5031488;28;20124;-67
2024/01/11 01:32:42;;;;;;;32.42;15.82;;;;;;;-6.10;100.00;102931.69;5031552;28;20040;-67
2024/01/11 01:35:08;;;;;;;30.77;15.35;;;;;;;-6.07;100.00;102939.41;5031530;28;20549;-67
2024/01/11 01:37:33;;;;;;;32.05;15.45;;;;;;;-6.07;100.00;102941.13;5030558;28;20029;-68
2024/01/11 01:39:58;;;;;;;32.10;16.40;;;;;;;-6.05;100.00;102942.81;5013560;28;20084;-67
2024/01/11 01:42:24;;;;;;;32.05;16.42;;;;;;;-6.09;100.00;102942.94;5031405;28;20029;-67
2024/01/11 01:44:49;;;;;;;30.27;16.00;;;;;;;-6.04;100.00;102947.09;5031217;28;20033;-67
2024/01/11 01:47:15;;;;;;;33.55;14.45;;;;;;;-6.06;100.00;102950.69;5031156;28;20026;-68
2024/01/11 01:49:43;;;;;;;33.60;15.57;;;;;;;-6.03;100.00;102956.63;5031222;28;20036;-68
2024/01/11 01:52:10;;;;;;;34.65;16.08;;;;;;;-6.06;100.00;102956.72;5031190;28;20029;-68
2024/01/11 01:54:35;;;;;;;30.65;14.73;;;;;;;-6.04;100.00;102961.88;5031000;28;20033;-67
2024/01/11 01:57:02;;;;;;;30.42;15.35;;;;;;;-6.08;100.00;102971.53;5031058;28;20057;-67
2024/01/11 01:59:30;;;;;;;29.38;14.85;;;;;;;-6.10;100.00;102973.34;5031097;28;20079;-68
2024/01/11 02:01:56;;;;;;;34.97;15.55;;;;;;;-6.11;100.00;102974.25;5031020;28;20083;-67
2024/01/11 02:04:22;;;;;;;33.05;16.48;;;;;;;-6.13;100.00;102970.00;5030998;28;20029;-68
2024/01/11 02:06:49;;;;;;;33.08;16.33;;;;;;;-6.19;100.00;102960.66;5031128;28;20033;-67
2024/01/11 02:09:16;;;;;;;35.05;16.40;;;;;;;-6.23;100.00;102958.22;5031130;28;20038;-67
2024/01/11 02:11:41;;;;;;;32.47;16.52;;;;;;;-6.23;100.00;102964.28;5013348;28;20120;-67
2024/01/11 02:14:07;;;;;;;30.67;16.05;;;;;;;-6.28;100.00;102950.56;5030931;28;20120;-67
2024/01/11 02:16:33;;;;;;;34.90;17.25;;;;;;;-6.31;100.00;102951.53;5030799;28;20021;-68
2024/01/11 02:18:58;;;;;;;28.00;15.80;;;;;;;-6.35;100.00;102938.69;5030704;28;20060;-68
2024/01/11 02:21:28;;;;;;;28.08;15.93;;;;;;;-6.38;100.00;102950.03;5030810;28;20044;-67
2024/01/11 02:24:14;;;;;;;31.23;14.35;;;;;;;-6.59;100.00;102904.78;5030566;28;20091;-68
2024/01/11 02:26:58;;;;;;;35.00;15.35;;;;;;;-6.32;100.00;102944.63;5030615;28;20049;-68
2024/01/11 02:29:24;;;;;;;32.45;16.27;;;;;;;-6.27;100.00;102958.31;5031081;28;20018;-68
2024/01/11 02:31:49;;;;;;;33.38;15.48;;;;;;;-6.28;100.00;102958.38;5012902;28;20176;-67
2024/01/11 02:34:14;;;;;;;32.13;16.75;;;;;;;-6.29;100.00;102962.75;5030564;28;20124;-68
2024/01/11 02:36:40;;;;;;;35.92;16.77;;;;;;;-6.31;100.00;102959.34;5030632;28;20033;-68
2024/01/11 02:39:06;;;;;;;36.05;17.17;;;;;;;-6.35;100.00;102962.94;5030675;28;20022;-68
2024/01/11 02:41:32;;;;;;;32.50;15.15;;;;;;;-6.36;100.00;102962.97;5030601;28;20475;-67
2024/01/11 02:43:58;;;;;;;35.83;16.00;;;;;;;-6.35;100.00;102956.91;5030536;28;20033;-67
2024/01/11 02:46:24;;;;;;;32.78;15.60;;;;;;;-6.38;100.00;102951.78;5030466;28;20034;-67
2024/01/11 02:48:49;;;;;;;36.08;16.08;;;;;;;-6.49;100.00;102938.28;5030779;28;20034;-67
2024/01/11 02:51:14;;;;;;;31.58;16.67;;;;;;;-6.45;100.00;102952.88;5016224;28;20056;-68
2024/01/11 02:53:40;;;;;;;33.15;16.00;;;;;;;-6.49;100.00;102957.34;5033806;28;20080;-67
2024/01/11 02:56:05;;;;;;;34.83;17.70;;;;;;;-6.49;100.00;102956.50;5033748;28;20030;-67
2024/01/11 02:58:30;;;;;;;35.17;16.67;;;;;;;-6.48;100.00;102960.81;5033744;28;20025;-67
2024/01/11 03:00:56;;;;;;;33.72;16.90;;;;;;;-6.55;100.00;102960.16;5033790;28;20075;-67
2024/01/11 03:03:21;;;;;;;34.35;15.77;;;;;;;-6.65;100.00;102949.22;5033497;28;20037;-67
2024/01/11 03:05:46;;;;;;;34.00;16.00;;;;;;;-6.65;100.00;102948.34;5033649;28;20048;-67
2024/01/11 03:08:12;;;;;;;34.30;17.15;;;;;;;-6.57;100.00;102957.63;5033623;28;20026;-67
2024/01/11 03:10:38;;;;;;;40.13;18.27;;;;;;;-6.61;100.00;102961.22;5033452;28;20060;-67
2024/01/11 03:13:04;;;;;;;40.28;16.13;;;;;;;-6.69;100.00;102954.56;5033673;28;20215;-66
2024/01/11 03:15:30;;;;;;;38.08;15.07;;;;;;;-6.68;100.00;102964.91;5033511;28;20473;-68
2024/01/11 03:17:55;;;;;;;30.77;16.63;;;;;;;-6.69;100.00;102957.16;5033352;28;20112;-67
2024/01/11 03:20:24;;;;;;;33.05;16.67;;;;;;;-6.71;100.00;102959.81;5033344;28;20041;-67
2024/01/11 03:22:49;;;;;;;37.60;18.48;;;;;;;-6.72;100.00;102962.47;5033480;28;20029;-67
2024/01/11 03:25:15;;;;;;;34.75;17.10;;;;;;;-6.78;100.00;102958.31;5033319;28;20480;-67
2024/01/11 03:27:40;;;;;;;37.25;17.48;;;;;;;-6.79;100.00;102946.22;5033436;28;20030;-67
2024/01/11 03:30:06;;;;;;;39.00;16.88;;;;;;;-6.72;100.00;102963.31;5033180;28;20022;-67
2024/01/11 03:32:32;;;;;;;33.20;17.48;;;;;;;-6.70;100.00;102958.06;5033268;28;20334;-67
2024/01/11 03:34:57;;;;;;;29.90;16.75;;;;;;;-6.67;100.00;102964.00;5033158;28;20021;-67
2024/01/11 03:37:22;;;;;;;36.00;17.42;;;;;;;-6.71;100.00;102954.59;5033075;28;20466;-66
2024/01/11 03:39:48;;;;;;;35.38;15.98;;;;;;;-6.76;100.00;102958.25;5033369;28;20386;-67
2024/01/11 03:42:13;;;;;;;35.00;16.65;;;;;;;-6.84;100.00;102955.94;5015540;28;20542;-67
2024/01/11 03:44:38;;;;;;;31.98;16.48;;;;;;;-6.87;100.00;102950.81;5033160;28;20472;-67
2024/01/11 03:47:04;;;;;;;37.47;17.92;;;;;;;-6.90;100.00;102937.94;5033153;28;20030;-66
2024/01/11 03:49:29;;;;;;;29.80;14.20;;;;;;;-6.94;100.00;102941.50;5015251;28;20037;-67
2024/01/11 03:51:54;;;;;;;28.70;15.80;;;;;;;-6.90;100.00;102949.19;5032960;28;20084;-66
2024/01/11 03:54:20;;;;;;;33.15;17.65;;;;;;;-6.95;100.00;102956.25;5032978;28;20025;-67
2024/01/11 03:56:45;;;;;;;27.40;15.38;;;;;;;-6.94;100.00;102963.19;5032898;28;20393;-67
2024/01/11 03:59:10;;;;;;;33.13;15.55;;;;;;;-6.98;100.00;102960.69;5032850;28;20027;-66
2024/01/11 04:01:40;;;;;;;29.52;15.80;;;;;;;-6.99;100.00;102961.59;5032103;28;20033;-67
2024/01/11 04:04:06;;;;;;;33.60;17.13;;;;;;;-7.11;100.00;102941.19;5032648;28;20033;-67
2024/01/11 04:06:31;;;;;;;35.67;18.10;;;;;;;-7.10;100.00;102950.69;5032589;28;20039;-67
2024/01/11 04:08:56;;;;;;;38.78;17.90;;;;;;;-7.18;100.00;102945.75;5032612;28;20021;-67
2024/01/11 04:11:22;;;;;;;32.10;16.83;;;;;;;-7.22;100.00;102958.00;5032757;28;20056;-67
2024/01/11 04:13:47;;;;;;;37.28;17.17;;;;;;;-7.30;100.00;102959.94;5032674;28;20029;-67
2024/01/11 04:16:12;;;;;;;26.30;12.75;;;;;;;-7.16;100.00;102982.09;5033026;28;20075;-67
2024/01/11 04:18:38;;;;;;;29.67;14.75;;;;;;;-7.07;100.00;102992.19;5032310;28;20033;-68
2024/01/11 04:21:04;;;;;;;33.08;15.88;;;;;;;-7.07;100.00;102981.78;5032458;28;20075;-68
2024/01/11 04:23:30;;;;;;;28.73;15.30;;;;;;;-7.05;100.00;102990.41;5032642;28;20036;-67
2024/01/11 04:25:56;;;;;;;38.65;17.13;;;;;;;-7.12;100.00;102968.09;5032503;28;20505;-67
2024/01/11 04:28:21;;;;;;;35.33;15.65;;;;;;;-7.18;100.00;102982.13;5032503;28;20026;-67
2024/01/11 04:30:46;;;;;;;23.50;12.60;;;;;;;-7.09;100.00;102987.03;5032333;28;20442;-67
2024/01/11 04:33:12;;;;;;;34.58;14.93;;;;;;;-7.08;100.00;102990.50;5032295;28;20466;-67
2024/01/11 04:35:37;;;;;;;38.28;16.35;;;;;;;-7.08;100.00;102990.50;5032632;28;20029;-67
2024/01/11 04:38:03;;;;;;;37.88;16.40;;;;;;;-7.05;100.00;103006.00;5032171;28;20497;-67
2024/01/11 04:40:28;;;;;;;33.28;14.77;;;;;;;-7.04;100.00;103005.94;5014324;28;20037;-67
2024/01/11 04:42:53;;;;;;;29.17;15.68;;;;;;;-7.08;100.00;103011.28;5032021;28;20029;-67
2024/01/11 04:45:19;;;;;;;31.23;15.60;;;;;;;-7.14;100.00;103007.13;5032084;28;20029;-67
2024/01/11 04:47:44;;;;;;;37.10;16.80;;;;;;;-7.23;100.00;102991.78;5032060;28;20057;-68
2024/01/11 04:50:09;;;;;;;32.40;16.02;;;;;;;-7.26;100.00;103003.13;5031997;28;20449;-67
2024/01/11 04:52:35;;;;;;;31.17;16.27;;;;;;;-7.31;100.00;102992.03;5032044;28;20065;-67
2024/01/11 04:55:01;;;;;;;27.70;14.75;;;;;;;-7.33;100.00;102996.44;5032043;28;20386;-67
2024/01/11 04:57:26;;;;;;;29.58;15.25;;;;;;;-7.32;100.00;103002.47;5031925;28;20486;-67
2024/01/11 04:59:53;;;;;;;39.38;16.30;;;;;;;-7.35;100.00;102998.22;5031947;28;20091;-67
2024/01/11 05:02:20;;;;;;;33.22;15.68;;;;;;;-7.39;100.00;102998.34;5031688;28;20021;-69
2024/01/11 05:04:47;;;;;;;33.97;15.43;;;;;;;-7.42;100.00;102998.44;5031958;28;20048;-67
2024/01/11 05:07:13;;;;;;;28.65;14.57;;;;;;;-7.40;100.00;103004.44;5031819;28;20030;-67
2024/01/11 05:09:38;;;;;;;32.15;15.43;;;;;;;-7.40;100.00;103010.50;5031765;28;20034;-67
2024/01/11 05:12:04;;;;;;;27.65;13.98;;;;;;;-7.32;100.00;103007.66;5031306;28;20030;-67
2024/01/11 05:14:30;;;;;;;28.25;14.50;;;;;;;-7.30;100.00;103029.25;5031172;28;20037;-67
2024/01/11 05:16:55;;;;;;;32.40;15.60;;;;;;;-7.33;100.00;103019.81;5013940;28;20029;-67
2024/01/11 05:19:21;;;;;;;26.92;14.10;;;;;;;-7.34;100.00;103022.44;5031525;28;20064;-68
2024/01/11 05:21:46;;;;;;;29.10;14.40;;;;;;;-7.36;100.00;103025.09;5031701;28;20033;-67
2024/01/11 05:24:11;;;;;;;36.70;16.85;;;;;;;-7.39;100.00;103006.16;5031682;28;20040;-67
2024/01/11 05:26:37;;;;;;;25.08;14.98;;;;;;;-7.43;100.00;103010.59;5031515;28;20061;-67
2024/01/11 05:29:04;;;;;;;23.42;12.05;;;;;;;-7.34;100.00;103023.31;5031584;28;20033;-68
2024/01/11 05:31:29;;;;;;;30.30;15.15;;;;;;;-7.34;100.00;103023.31;5031645;28;20028;-67
2024/01/11 05:33:55;;;;;;;25.63;15.32;;;;;;;-7.43;100.00;103025.31;5031433;28;20029;-67
2024/01/11 05:36:21;;;;;;;29.65;14.27;;;;;;;-7.44;100.00;103040.06;5031090;28;20021;-67
2024/01/11 05:38:46;;;;;;;30.92;16.50;;;;;;;-7.44;100.00;103034.88;5031504;28;20080;-68
2024/01/11 05:41:12;;;;;;;24.75;12.90;;;;;;;-7.35;100.00;103060.56;5031387;28;20470;-67
2024/01/11 05:43:38;;;;;;;27.38;14.60;;;;;;;-7.37;100.00;103059.78;5031264;28;20605;-67
2024/01/11 05:46:04;;;;;;;20.25;10.77;;;;;;;-7.33;100.00;103053.59;5031323;28;20025;-67
2024/01/11 05:48:30;;;;;;;33.80;15.15;;;;;;;-7.38;100.00;103042.47;5031322;28;20437;-67
2024/01/11 05:50:55;;;;;;;31.50;13.70;;;;;;;-7.44;100.00;103044.41;5031213;28;20030;-68
2024/01/11 05:53:21;;;;;;;32.22;15.05;;;;;;;-7.51;100.00;103036.78;5031439;28;20029;-67
2024/01/11 05:55:47;;;;;;;28.25;14.65;;;;;;;-7.56;100.00;103033.44;5031354;28;20042;-67
2024/01/11 05:58:12;;;;;;;30.35;14.52;;;;;;;-7.65;100.00;103025.94;5031141;28;20087;-67
2024/01/11 06:00:37;;;;;;;31.95;14.38;;;;;;;-7.56;100.00;103040.38;5031008;28;20037;-67
2024/01/11 06:03:04;;;;;;;27.98;14.00;;;;;;;-7.57;100.00;103036.09;5031025;28;20050;-67
2024/01/11 06:05:29;;;;;;;25.13;12.52;;;;;;;-7.60;100.00;103042.22;5031162;28;20029;-66
2024/01/11 06:07:55;;;;;;;27.23;14.57;;;;;;;-7.59;100.00;103056.91;5031169;28;20040;-67
2024/01/11 06:10:20;;;;;;;23.80;11.93;;;;;;;-7.57;100.00;103059.47;5031121;28;20049;-66
2024/01/11 06:12:45;;;;;;;23.02;12.77;;;;;;;-7.57;100.00;103069.84;5031267;28;20034;-67
2024/01/11 06:15:11;;;;;;;28.65;14.20;;;;;;;-7.58;100.00;103065.56;5031038;28;20064;-66
2024/01/11 06:17:36;;;;;;;26.33;14.57;;;;;;;-7.65;100.00;103066.63;5031115;28;20104;-67
2024/01/11 06:20:03;;;;;;;31.45;14.88;;;;;;;-7.68;100.00;103064.97;5031052;28;20034;-67
2024/01/11 06:22:28;;;;;;;29.58;15.57;;;;;;;-7.75;100.00;103049.59;5031006;28;20661;-67
2024/01/11 06:24:54;;;;;;;28.55;14.38;;;;;;;-7.77;100.00;103052.25;5033011;28;20435;-68
2024/01/11 06:27:19;;;;;;;29.60;15.38;;;;;;;-7.85;100.00;103060.22;5034565;28;20116;-68
2024/01/11 06:29:44;;;;;;;30.52;14.95;;;;;;;-7.88;100.00;103062.03;5034431;28;20112;-68
2024/01/11 06:32:10;;;;;;;28.02;15.15;;;;;;;-7.89;100.00;103068.13;5034441;28;20032;-68
2024/01/11 06:34:38;;;;;;;30.85;15.00;;;;;;;-7.92;100.00;103066.47;5034444;28;20075;-68
2024/01/11 06:37:03;;;;;;;32.15;15.65;;;;;;;-7.94;100.00;103054.44;5034515;28;20051;-68
2024/01/11 06:39:29;;;;;;;29.58;14.57;;;;;;;-7.97;100.00;103050.16;5017437;28;20112;-66
2024/01/11 06:41:55;;;;;;;28.23;14.95;;;;;;;-8.02;100.00;103053.78;5018156;28;20025;-67
2024/01/11 06:44:21;;;;;;;32.20;15.02;;;;;;;-8.03;100.00;103068.50;5035057;28;20068;-67
2024/01/11 06:46:46;;;;;;;31.65;14.77;;;;;;;-8.06;100.00;103066.00;5035573;28;20037;-69
2024/01/11 06:49:11;;;;;;;28.35;14.38;;;;;;;-8.09;100.00;103060.00;5035374;28;20041;-68
2024/01/11 06:51:37;;;;;;;29.08;14.15;;;;;;;-8.14;100.00;103070.50;5036017;28;20040;-67
2024/01/11 06:54:02;;;;;;;31.27;15.25;;;;;;;-8.18;100.00;103069.72;5035121;28;20449;-68
2024/01/11 06:56:28;;;;;;;29.40;14.18;;;;;;;-8.19;100.00;103078.41;5035050;28;20112;-67
2024/01/11 06:58:54;;;;;;;32.55;15.35;;;;;;;-8.24;100.00;103087.19;5034637;28;20109;-67
2024/01/11 07:01:20;;;;;;;33.80;16.02;;;;;;;-8.24;100.00;103087.19;5034359;28;20025;-68
2024/01/11 07:03:45;;;;;;;26.40;14.88;;;;;;;-8.27;100.00;103077.75;5034039;28;20095;-67
2024/01/11 07:06:11;;;;;;;31.13;14.02;;;;;;;-8.29;100.00;103083.88;5033972;28;20080;-68
2024/01/11 07:08:37;;;;;;;25.75;14.57;;;;;;;-8.32;100.00;103092.56;5034314;28;20026;-68
2024/01/11 07:11:03;;;;;;;30.23;15.23;;;;;;;-8.34;100.00;103091.78;5034102;28;20033;-68
2024/01/11 07:13:29;;;;;;;28.27;13.88;;;;;;;-8.37;100.00;103101.41;5034028;28;20029;-68
2024/01/11 07:15:57;;;;;;;19.88;10.50;;;;;;;-8.25;100.00;103103.66;5034293;28;20033;-68
2024/01/11 07:18:22;;;;;;;24.40;12.88;;;;;;;-8.07;100.00;103120.53;5034043;28;20057;-68
2024/01/11 07:20:47;;;;;;;17.17;9.10;;;;;;;-8.02;100.00;103109.13;5016011;28;20021;-68
2024/01/11 07:23:13;;;;;;;33.25;14.65;;;;;;;-7.95;100.00;103112.41;5033838;28;20032;-68
2024/01/11 07:25:39;;;;;;;32.55;14.48;;;;;;;-7.97;100.00;103111.59;5033325;28;20101;-68
2024/01/11 07:28:04;;;;;;;30.98;15.88;;;;;;;-7.96;100.00;103108.97;5016092;28;20041;-68
2024/01/11 07:30:30;;;;;;;27.13;14.40;;;;;;;-7.89;100.00;103118.28;5034048;28;20036;-68
2024/01/11 07:32:55;;;;;;;22.25;12.85;;;;;;;-7.75;100.00;103128.34;4999990;28;20117;-67
2024/01/11 07:35:21;;;;;;;30.58;13.98;;;;;;;-7.81;100.00;103118.97;5032665;28;20466;-68
2024/01/11 07:37:46;;;;;;;31.02;13.18;;;;;;;-7.76;100.00;103121.44;5033152;28;20060;-68
2024/01/11 07:40:13;;;;;;;32.03;15.60;;;;;;;-7.83;100.00;103107.75;5014561;28;20029;-67
2024/01/11 07:42:39;;;;;;;30.27;14.07;;;;;;;-7.82;100.00;103117.25;5033069;28;20033;-68
2024/01/11 07:45:05;;;;;;;22.35;13.02;;;;;;;-7.78;100.00;103109.41;5032252;28;20458;-66
2024/01/11 07:47:31;;;;;;;28.35;15.20;;;;;;;-7.82;100.00;103099.06;5032413;28;20112;-68
2024/01/11 07:49:56;;;;;;;20.90;8.98;;;;;;;-7.63;100.00;103109.84;5033319;28;20554;-67
2024/01/11 07:52:22;;;;;;;31.05;14.43;;;;;;;-7.30;100.00;103121.06;5032762;28;20399;-69
2024/01/11 07:54:47;;;;;;;25.92;12.82;;;;;;;-6.93;100.00;103097.47;5033264;28;20028;-68
2024/01/11 07:57:13;;;;;;;26.70;13.80;;;;;;;-6.34;100.00;103117.34;5032410;28;20069;-66
2024/01/11 07:59:39;;;;;;;23.65;12.80;;;;;;;-5.76;100.00;103116.25;5032793;28;20045;-68
2024/01/11 08:02:05;;;;;;;23.88;12.55;;;;;;;-5.24;100.00;103119.59;5032992;28;20060;-70
2024/01/11 08:04:31;;;;;;;30.65;14.52;;;;;;;-4.86;100.00;103106.91;5032942;28;20033;-68
2024/01/11 08:06:58;;;;;;;26.00;13.48;;;;;;;-4.38;100.00;103099.75;5033046;28;20032;-69
2024/01/11 08:09:25;;;;;;;26.60;14.63;;;;;;;-3.74;100.00;103098.88;5033073;28;20065;-68
2024/01/11 08:11:50;;;;;;;24.77;13.63;;;;;;;-3.31;100.00;103102.22;5033099;28;20026;-69
2024/01/11 08:14:15;;;;;;;28.10;15.02;;;;;;;-2.94;100.00;103093.56;5033094;28;20493;-69
2024/01/11 08:16:41;;;;;;;26.80;14.52;;;;;;;-2.59;100.00;103097.16;5032770;28;20034;-67
2024/01/11 08:19:06;;;;;;;28.10;14.50;;;;;;;-2.17;100.00;103093.38;5032657;28;20029;-66
2024/01/11 08:21:31;;;;;;;26.10;14.57;;;;;;;-1.79;100.00;103084.41;5032773;28;20068;-67
2024/01/11 08:23:57;;;;;;;27.70;15.05;;;;;;;-1.51;100.00;103086.47;5015083;28;20429;-66
2024/01/11 08:26:22;;;;;;;26.20;15.20;;;;;;;-1.27;100.00;103079.94;5032641;28;20549;-69
2024/01/11 08:28:48;;;;;;;28.00;15.00;;;;;;;-1.12;100.00;103099.28;5033031;28;20076;-68
2024/01/11 08:31:13;;;;;;;26.52;15.65;;;;;;;-0.70;100.00;103100.47;5032855;28;20132;-70
2024/01/11 08:33:39;;;;;;;25.90;14.48;;;;;;;-0.03;100.00;103105.38;5032833;28;20474;-71
2024/01/11 08:36:06;;;;;;;21.02;11.95;;;;;;;0.42;100.00;103113.28;5032912;28;20060;-69
2024/01/11 08:38:31;;;;;;;25.25;13.57;;;;;;;0.90;100.00;103128.75;5032795;28;20496;-69
2024/01/11 08:40:58;;;;;;;24.83;13.80;;;;;;;1.69;100.00;103120.22;5032686;28;20101;-70
2024/01/11 08:43:24;;;;;;;25.65;14.70;;;;;;;2.63;100.00;103097.16;5032613;28;20119;-67
2024/01/11 08:45:50;;;;;;;28.10;14.80;;;;;;;3.18;99.02;103113.53;5032616;28;20021;-67
2024/01/11 08:48:15;;;;;;;22.77;13.48;;;;;;;3.76;96.70;103111.97;5032656;28;20106;-67
2024/01/11 08:50:41;;;;;;;30.02;14.70;;;;;;;4.40;93.40;103115.94;5032452;28;20034;-67
2024/01/11 08:53:06;;;;;;;26.40;14.85;;;;;;;4.28;89.02;103117.69;5032219;28;20497;-70
2024/01/11 08:55:32;;;;;;;26.55;14.48;;;;;;;4.19;87.82;103129.00;5032223;28;20108;-69
2024/01/11 08:57:58;;;;;;;22.88;13.73;;;;;;;4.51;84.50;103142.44;5014449;28;20044;-68
2024/01/11 09:00:23;;;;;;;26.38;15.07;;;;;;;4.79;85.19;103146.44;5032266;28;20037;-69
2024/01/11 09:02:49;;;;;;;27.45;15.90;;;;;;;4.80;81.36;103150.78;5032121;28;20030;-68
2024/01/11 09:05:15;;;;;;;23.30;15.07;;;;;;;4.68;79.66;103138.50;5032171;28;20037;-68
2024/01/11 09:07:40;;;;;;;25.23;14.05;;;;;;;4.81;82.71;103141.88;5032310;28;20025;-69
2024/01/11 09:10:08;;;;;;;27.45;15.35;;;;;;;5.05;82.43;103155.00;5032510;28;20033;-69
2024/01/11 09:12:34;;;;;;;24.35;15.30;;;;;;;5.49;80.25;103147.97;5014611;28;20702;-70
2024/01/11 09:15:00;;;;;;;24.70;14.52;;;;;;;5.69;77.69;103155.16;5032298;28;20033;-68
2024/01/11 09:17:25;;;;;;;26.40;15.27;;;;;;;5.66;76.93;103154.56;5032137;28;20462;-68
2024/01/11 09:19:51;;;;;;;29.85;15.38;;;;;;;5.46;77.62;103150.88;5014364;28;20111;-70
2024/01/11 09:22:17;;;;;;;27.42;15.35;;;;;;;5.32;77.38;103162.59;5032239;28;20029;-69
2024/01/11 09:24:42;;;;;;;26.10;16.02;;;;;;;5.08;74.49;103168.03;5031747;28;20398;-68
2024/01/11 09:27:08;;;;;;;28.60;16.08;;;;;;;4.72;79.20;103157.66;5032210;28;20029;-68
2024/01/11 09:29:33;;;;;;;23.13;14.50;;;;;;;4.72;77.59;103157.66;5031769;28;20385;-68
2024/01/11 09:31:59;;;;;;;24.23;14.73;;;;;;;4.33;76.84;103171.16;5031916;28;20466;-70
2024/01/11 09:34:25;;;;;;;25.63;15.02;;;;;;;3.30;80.38;103169.06;5031723;28;20035;-70
2024/01/11 09:36:50;;;;;;;25.10;13.40;;;;;;;2.29;85.81;103174.31;5031833;28;20528;-69
2024/01/11 09:39:16;;;;;;;28.52;16.85;;;;;;;1.55;89.90;103173.84;5031676;28;20030;-69
2024/01/11 09:41:52;;;;;;;29.00;17.38;;;;;;;1.43;92.23;103181.66;5031690;28;20083;-69
2024/01/11 09:44:18;;;;;;;29.45;15.30;;;;;;;2.13;88.29;103185.91;5031495;28;20053;-70
2024/01/11 09:46:43;;;;;;;29.40;15.85;;;;;;;3.40;85.46;103191.22;5031601;28;20091;-70
2024/01/11 09:49:11;;;;;;;24.35;14.77;;;;;;;4.51;80.53;103198.06;5031762;28;20029;-69
2024/01/11 09:51:39;;;;;;;24.67;15.45;;;;;;;5.18;77.27;103199.97;5013735;28;20397;-71
2024/01/11 09:54:06;;;;;;;26.95;15.18;;;;;;;5.51;74.45;103207.09;5031529;28;20498;-69
2024/01/11 09:56:32;;;;;;;27.30;14.32;;;;;;;5.60;73.35;103199.22;5031513;28;20041;-68
2024/01/11 09:58:57;;;;;;;25.20;14.73;;;;;;;5.63;74.79;103203.44;5030895;28;20029;-69
2024/01/11 10:01:24;;;;;;;24.80;14.18;;;;;;;5.86;72.47;103194.47;5031521;28;20025;-71
2024/01/11 10:03:50;;;;;;;29.38;16.25;;;;;;;5.69;71.29;103202.94;5031373;28;20402;-71
2024/01/11 10:06:17;;;;;;;26.20;15.55;;;;;;;5.82;72.57;103198.34;5031459;28;20033;-71
2024/01/11 10:08:43;;;;;;;27.85;15.88;;;;;;;5.81;69.85;103201.13;5031506;28;20033;-71
2024/01/11 10:11:08;;;;;;;31.45;18.85;;;;;;;4.94;71.28;103214.19;5013546;28;20081;-70
2024/01/11 10:13:35;;;;;;;29.98;17.25;;;;;;;3.74;75.34;103208.16;5031412;28;20034;-70
2024/01/11 10:16:15;;;;;;;28.80;15.63;;;;;;;2.79;80.47;103207.88;5013540;28;20116;-71
2024/01/11 10:18:41;;;;;;;26.98;16.75;;;;;;;2.78;82.21;103199.09;5031219;28;20501;-71
2024/01/11 10:21:06;;;;;;;31.67;15.88;;;;;;;3.48;80.26;103203.94;5013419;28;20030;-68
2024/01/11 10:23:35;;;;;;;22.58;13.23;;;;;;;4.50;76.84;103206.97;5030931;28;20041;-69
2024/01/11 10:26:02;;;;;;;28.15;14.65;;;;;;;5.51;73.29;103217.69;5031056;28;20030;-71
2024/01/11 10:28:28;;;;;;;29.75;16.77;;;;;;;6.25;69.57;103220.56;5031130;28;20057;-69
2024/01/11 10:30:54;;;;;;;31.52;14.80;;;;;;;6.58;66.42;103227.53;5013574;28;20020;-70
2024/01/11 10:33:23;;;;;;;26.50;14.15;;;;;;;6.25;66.66;103226.72;5030986;28;20111;-71
2024/01/11 10:35:49;;;;;;;24.25;13.77;;;;;;;5.79;67.21;103222.50;5031005;28;20021;-70
2024/01/11 10:38:16;;;;;;;22.20;13.48;;;;;;;5.41;68.13;103227.34;5030991;28;20041;-69
2024/01/11 10:40:42;;;;;;;28.65;16.23;;;;;;;4.77;69.49;103227.88;5030781;28;20053;-70
2024/01/11 10:43:11;;;;;;;28.05;16.90;;;;;;;4.41;70.16;103220.06;5030865;28;20040;-69
2024/01/11 10:45:40;;;;;;;31.38;16.60;;;;;;;4.39;69.50;103220.19;5013343;28;20018;-70
2024/01/11 10:48:14;;;;;;;30.75;16.83;;;;;;;4.53;71.02;103216.50;5013025;28;20029;-70
2024/01/11 10:50:43;;;;;;;29.75;16.45;;;;;;;4.26;71.05;103216.75;5030989;28;20029;-72
2024/01/11 10:53:39;;;;;;;29.60;17.33;;;;;;;3.45;73.74;103208.56;5030629;28;20030;-71
2024/01/11 10:56:07;;;;;;;30.60;16.85;;;;;;;2.64;77.47;103203.66;5031008;28;20117;-70
2024/01/11 10:58:35;;;;;;;31.92;17.33;;;;;;;2.39;77.30;103207.94;5030878;28;20406;-70